createdAt,value
2023-08-21T00:00:42.300Z,12.53
2023-08-21T00:03:09.340Z,11.70
2023-08-21T00:05:36.138Z,12.53
2023-08-21T00:08:02.850Z,13.20
2023-08-21T00:10:30.927Z,11.93
2023-08-21T00:12:57.675Z,10.77
2023-08-21T00:15:24.463Z,13.30
2023-08-21T00:17:51.464Z,11.27
2023-08-21T00:20:18.301Z,11.30
2023-08-21T00:22:45.053Z,12.47
2023-08-21T00:25:11.833Z,11.90
2023-08-21T00:27:38.628Z,11.60
2023-08-21T00:30:06.085Z,12.20
2023-08-21T00:32:32.834Z,12.90
2023-08-21T00:34:59.571Z,11.97
2023-08-21T00:37:26.332Z,12.77
2023-08-21T00:39:53.074Z,13.07
2023-08-21T00:42:19.822Z,11.43
2023-08-21T00:44:46.574Z,11.37
2023-08-21T00:47:13.332Z,11.67
2023-08-21T00:49:40.442Z,11.70
2023-08-21T00:52:09.278Z,11.77
2023-08-21T00:54:36.059Z,11.40
2023-08-21T00:57:03.884Z,11.87
2023-08-21T00:59:30.829Z,13.37
2023-08-21T01:01:57.645Z,13.10
2023-08-21T01:04:24.992Z,12.43
2023-08-21T01:06:52.541Z,13.13
2023-08-21T01:09:28.650Z,12.20
2023-08-21T01:11:59.561Z,12.73
2023-08-21T01:14:26.359Z,11.87
2023-08-21T01:16:54.343Z,12.73
2023-08-21T01:19:33.265Z,12.63
2023-08-21T01:22:01.410Z,11.93
2023-08-21T01:24:28.233Z,12.97
2023-08-21T01:26:55.005Z,15.63
2023-08-21T01:29:22.051Z,14.43
2023-08-21T01:31:53.694Z,13.80
2023-08-21T01:34:22.443Z,13.43
2023-08-21T01:36:49.455Z,13.80
2023-08-21T01:39:16.597Z,16.17
2023-08-21T01:41:43.327Z,15.00
2023-08-21T01:44:10.013Z,14.20
2023-08-21T01:46:36.958Z,13.93
2023-08-21T01:49:03.722Z,15.60
2023-08-21T01:51:30.522Z,16.73
2023-08-21T01:53:57.280Z,15.27
2023-08-21T01:56:24.417Z,15.83
2023-08-21T01:58:51.207Z,14.30
2023-08-21T02:01:19.167Z,14.23
2023-08-21T02:03:46.365Z,14.80
2023-08-21T02:06:13.131Z,17.90
2023-08-21T02:08:40.018Z,14.37
2023-08-21T02:11:06.781Z,14.43
2023-08-21T02:13:34.130Z,14.63
2023-08-21T02:16:01.444Z,14.40
2023-08-21T02:18:28.236Z,14.73
2023-08-21T02:20:55.003Z,14.30
2023-08-21T02:23:21.818Z,14.53
2023-08-21T02:25:50.081Z,14.93
2023-08-21T02:28:17.347Z,18.43
2023-08-21T02:30:44.080Z,14.23
2023-08-21T02:33:10.931Z,17.30
2023-08-21T02:35:39.225Z,14.70
2023-08-21T02:38:05.965Z,13.77
2023-08-21T02:40:36.383Z,14.23
2023-08-21T02:43:03.366Z,15.27
2023-08-21T02:45:31.028Z,14.93
2023-08-21T02:47:58.354Z,14.37
2023-08-21T02:50:25.163Z,14.47
2023-08-21T02:52:51.924Z,14.33
2023-08-21T02:55:18.763Z,13.40
2023-08-21T02:57:46.030Z,15.83
2023-08-21T03:00:13.134Z,14.10
2023-08-21T03:02:43.984Z,15.13
2023-08-21T03:05:11.767Z,14.67
2023-08-21T03:07:38.942Z,13.83
2023-08-21T03:10:06.429Z,13.60
2023-08-21T03:12:33.206Z,15.23
2023-08-21T03:15:00.053Z,15.23
2023-08-21T03:17:26.955Z,14.37
2023-08-21T03:19:53.692Z,15.17
2023-08-21T03:22:20.475Z,14.90
2023-08-21T03:24:47.205Z,14.67
2023-08-21T03:27:15.811Z,14.33
2023-08-21T03:29:49.136Z,14.60
2023-08-21T03:32:18.938Z,14.63
2023-08-21T03:34:45.887Z,14.80
2023-08-21T03:37:12.877Z,15.03
2023-08-21T03:39:40.405Z,15.27
2023-08-21T03:42:09.796Z,15.80
2023-08-21T03:44:36.551Z,16.50
2023-08-21T03:47:03.287Z,16.47
2023-08-21T03:49:33.358Z,14.77
2023-08-21T03:52:01.135Z,14.77
2023-08-21T03:54:27.892Z,14.47
2023-08-21T03:56:54.608Z,16.07
2023-08-21T03:59:24.728Z,14.87
2023-08-21T04:01:51.518Z,14.97
2023-08-21T04:04:18.396Z,16.10
2023-08-21T04:06:45.483Z,15.30
2023-08-21T04:09:12.910Z,15.57
2023-08-21T04:11:39.727Z,16.33
2023-08-21T04:14:06.539Z,15.87
2023-08-21T04:16:33.309Z,16.23
2023-08-21T04:19:00.097Z,16.53
2023-08-21T04:21:26.962Z,15.40
2023-08-21T04:23:54.533Z,15.47
2023-08-21T04:26:21.297Z,16.23
2023-08-21T04:28:48.089Z,16.23
2023-08-21T04:31:15.431Z,16.17
2023-08-21T04:33:42.994Z,16.90
2023-08-21T04:36:15.728Z,17.30
2023-08-21T04:38:43.236Z,15.87
2023-08-21T04:41:10.460Z,16.63
2023-08-21T04:43:41.426Z,16.43
2023-08-21T04:46:09.726Z,17.67
2023-08-21T04:48:38.564Z,17.73
2023-08-21T04:51:05.553Z,17.67
2023-08-21T04:53:32.668Z,16.43
2023-08-21T04:56:00.910Z,18.30
2023-08-21T04:58:28.095Z,17.93
2023-08-21T05:00:55.811Z,17.00
2023-08-21T05:03:22.655Z,18.67
2023-08-21T05:05:54.058Z,17.93
2023-08-21T05:08:22.219Z,17.77
2023-08-21T05:10:48.975Z,19.67
2023-08-21T05:13:18.848Z,18.43
2023-08-21T05:15:45.751Z,18.00
2023-08-21T05:18:12.860Z,17.30
2023-08-21T05:20:39.717Z,16.43
2023-08-21T05:23:06.538Z,18.07
2023-08-21T05:25:33.835Z,18.07
2023-08-21T05:28:00.623Z,18.23
2023-08-21T05:30:27.363Z,18.27
2023-08-21T05:32:54.237Z,19.23
2023-08-21T05:35:21.036Z,18.80
2023-08-21T05:37:47.812Z,21.67
2023-08-21T05:40:14.860Z,19.20
2023-08-21T05:42:41.648Z,18.57
2023-08-21T05:45:08.513Z,18.50
2023-08-21T05:47:35.944Z,19.80
2023-08-21T05:50:03.137Z,19.87
2023-08-21T05:52:29.965Z,20.80
2023-08-21T05:54:56.735Z,20.03
2023-08-21T05:57:23.521Z,19.70
2023-08-21T05:59:52.213Z,19.03
2023-08-21T06:02:19.075Z,18.17
2023-08-21T06:04:46.418Z,19.83
2023-08-21T06:07:13.223Z,20.03
2023-08-21T06:09:41.968Z,20.10
2023-08-21T06:12:09.985Z,19.40
2023-08-21T06:14:37.989Z,20.13
2023-08-21T06:17:06.285Z,19.75
2023-08-21T06:19:33.604Z,21.13
2023-08-21T06:22:00.399Z,20.33
2023-08-21T06:24:27.233Z,20.10
2023-08-21T06:26:59.110Z,22.00
2023-08-21T06:29:26.013Z,22.03
2023-08-21T06:31:52.856Z,22.00
2023-08-21T06:34:20.849Z,22.57
2023-08-21T06:36:47.566Z,20.80
2023-08-21T06:39:14.289Z,21.85
2023-08-21T06:41:41.018Z,21.48
2023-08-21T06:44:07.784Z,22.45
2023-08-21T06:46:37.497Z,21.17
2023-08-21T06:49:04.701Z,21.88
2023-08-21T06:51:31.486Z,21.00
2023-08-21T06:53:58.278Z,20.60
2023-08-21T06:56:25.033Z,22.50
2023-08-21T06:58:51.829Z,20.13
2023-08-21T07:01:18.694Z,20.38
2023-08-21T07:03:45.512Z,20.35
2023-08-21T07:06:12.276Z,21.60
2023-08-21T07:08:41.352Z,21.13
2023-08-21T07:11:11.267Z,21.13
2023-08-21T07:13:38.133Z,21.70
2023-08-21T07:16:06.601Z,21.65
2023-08-21T07:18:34.172Z,22.85
2023-08-21T07:21:01.470Z,21.15
2023-08-21T07:23:28.652Z,22.45
2023-08-21T07:25:55.611Z,23.00
2023-08-21T07:28:23.003Z,22.90
2023-08-21T07:30:55.049Z,23.05
2023-08-21T07:33:21.941Z,24.13
2023-08-21T07:35:48.698Z,22.88
2023-08-21T07:38:15.466Z,20.92
2023-08-21T07:40:42.204Z,20.88
2023-08-21T07:43:09.613Z,23.55
2023-08-21T07:45:37.934Z,21.75
2023-08-21T07:48:14.259Z,20.33
2023-08-21T07:50:42.179Z,20.60
2023-08-21T07:53:09.145Z,21.60
2023-08-21T07:55:35.933Z,20.80
2023-08-21T07:58:03.384Z,19.88
2023-08-21T08:00:30.206Z,20.13
2023-08-21T08:02:56.947Z,19.98
2023-08-21T08:05:23.963Z,19.60
2023-08-21T08:07:50.729Z,18.77
2023-08-21T08:10:17.468Z,19.85
2023-08-21T08:12:45.262Z,19.23
2023-08-21T08:15:12.105Z,18.52
2023-08-21T08:17:38.897Z,18.35
2023-08-21T08:20:07.168Z,18.17
2023-08-21T08:22:34.213Z,19.35
2023-08-21T08:25:00.971Z,17.17
2023-08-21T08:27:27.737Z,17.08
2023-08-21T08:29:54.501Z,16.70
2023-08-21T08:32:21.438Z,16.58
2023-08-21T08:34:48.212Z,15.93
2023-08-21T08:37:15.020Z,16.02
2023-08-21T08:39:41.755Z,15.10
2023-08-21T08:42:08.919Z,17.20
2023-08-21T08:44:36.025Z,16.75
2023-08-21T08:47:03.266Z,15.68
2023-08-21T08:49:30.750Z,15.65
2023-08-21T08:51:58.202Z,15.35
2023-08-21T08:54:26.411Z,15.23
2023-08-21T08:56:53.522Z,16.42
2023-08-21T08:59:20.378Z,16.23
2023-08-21T09:01:47.205Z,15.65
2023-08-21T09:04:14.019Z,16.00
2023-08-21T09:06:40.914Z,15.95
2023-08-21T09:09:08.373Z,15.65
2023-08-21T09:11:35.394Z,15.82
2023-08-21T09:14:02.183Z,15.95
2023-08-21T09:16:29.109Z,15.23
2023-08-21T09:18:59.574Z,15.82
2023-08-21T09:21:26.892Z,14.07
2023-08-21T09:24:03.948Z,15.18
2023-08-21T09:26:33.654Z,14.73
2023-08-21T09:29:02.640Z,14.77
2023-08-21T09:31:33.924Z,15.32
2023-08-21T09:34:07.562Z,14.63
2023-08-21T09:36:34.820Z,14.35
2023-08-21T09:39:02.075Z,16.08
2023-08-21T09:41:29.006Z,15.70
2023-08-21T09:44:02.252Z,18.08
2023-08-21T09:46:29.612Z,14.88
2023-08-21T09:48:56.747Z,16.70
2023-08-21T09:51:23.785Z,14.10
2023-08-21T09:53:50.976Z,20.10
2023-08-21T09:56:20.863Z,16.00
2023-08-21T09:58:48.757Z,11.55
2023-08-21T10:01:16.510Z,12.27
2023-08-21T10:03:45.884Z,11.27
2023-08-21T10:06:12.633Z,12.73
2023-08-21T10:08:43.197Z,12.75
2023-08-21T10:11:10.375Z,12.98
2023-08-21T10:13:40.600Z,12.18
2023-08-21T10:16:10.053Z,11.25
2023-08-21T10:18:37.958Z,11.68
2023-08-21T10:21:14.057Z,11.88
2023-08-21T10:23:45.982Z,12.27
2023-08-21T10:26:13.233Z,11.23
2023-08-21T10:28:56.238Z,10.90
2023-08-21T10:31:32.129Z,11.20
2023-08-21T10:33:59.948Z,11.15
2023-08-21T10:36:39.345Z,10.80
2023-08-21T10:39:13.692Z,12.23
2023-08-21T10:41:40.455Z,10.43
2023-08-21T10:44:07.778Z,10.65
2023-08-21T10:46:53.672Z,10.60
2023-08-21T10:49:20.486Z,10.32
2023-08-21T10:51:47.240Z,10.88
2023-08-21T10:54:14.396Z,11.27
2023-08-21T10:56:41.158Z,10.88
2023-08-21T10:59:08.323Z,9.80
2023-08-21T11:01:45.861Z,9.98
2023-08-21T11:04:13.121Z,9.80
2023-08-21T11:06:40.308Z,8.77
2023-08-21T11:09:13.179Z,8.48
2023-08-21T11:11:41.929Z,8.93
2023-08-21T11:14:08.733Z,8.48
2023-08-21T11:16:35.787Z,8.50
2023-08-21T11:19:08.444Z,16.05
2023-08-21T11:21:35.335Z,9.00
2023-08-21T11:24:02.113Z,9.82
2023-08-21T11:26:28.853Z,8.43
2023-08-21T11:28:56.673Z,7.80
2023-08-21T11:31:23.525Z,10.57
2023-08-21T11:33:51.012Z,7.95
2023-08-21T11:36:18.590Z,8.18
2023-08-21T11:38:58.385Z,7.57
2023-08-21T11:41:25.141Z,7.88
2023-08-21T11:43:52.091Z,9.30
2023-08-21T11:46:19.406Z,8.13
2023-08-21T11:48:46.276Z,7.25
2023-08-21T11:51:13.145Z,7.00
2023-08-21T11:53:40.646Z,8.10
2023-08-21T11:56:11.374Z,7.90
2023-08-21T11:58:38.936Z,7.20
2023-08-21T12:01:06.021Z,8.65
2023-08-21T12:03:36.785Z,7.93
2023-08-21T12:06:07.578Z,6.85
2023-08-21T12:08:34.307Z,8.25
2023-08-21T12:11:01.177Z,7.57
2023-08-21T12:13:29.909Z,7.80
2023-08-21T12:15:57.437Z,8.00
2023-08-21T12:18:24.455Z,7.32
2023-08-21T12:20:51.166Z,8.77
2023-08-21T12:23:17.925Z,8.20
2023-08-21T12:25:45.654Z,7.68
2023-08-21T12:28:12.587Z,8.05
2023-08-21T12:30:39.326Z,8.48
2023-08-21T12:33:20.340Z,7.75
2023-08-21T12:35:49.815Z,8.88
2023-08-21T12:38:16.930Z,7.90
2023-08-21T12:40:43.655Z,8.70
2023-08-21T12:43:10.478Z,8.52
2023-08-21T12:45:37.798Z,7.85
2023-08-21T12:48:05.225Z,7.80
2023-08-21T12:50:32.224Z,8.63
2023-08-21T12:52:59.003Z,9.38
2023-08-21T12:55:25.766Z,8.55
2023-08-21T12:57:52.516Z,7.63
2023-08-21T13:00:19.287Z,9.13
2023-08-21T13:02:46.110Z,8.15
2023-08-21T13:05:13.032Z,8.73
2023-08-21T13:07:39.838Z,10.55
2023-08-21T13:10:06.885Z,8.15
2023-08-21T13:12:33.649Z,7.38
2023-08-21T13:15:00.628Z,8.38
2023-08-21T13:17:27.557Z,7.13
2023-08-21T13:19:54.354Z,10.43
2023-08-21T13:22:21.107Z,7.78
2023-08-21T13:24:47.868Z,6.68
2023-08-21T13:27:14.833Z,9.85
2023-08-21T13:29:41.573Z,7.22
2023-08-21T13:32:08.300Z,7.20
2023-08-21T13:34:35.044Z,8.18
2023-08-21T13:37:01.747Z,7.35
2023-08-21T13:39:28.516Z,6.03
2023-08-21T13:41:55.265Z,6.32
2023-08-21T13:44:22.016Z,7.03
2023-08-21T13:46:48.811Z,6.30
2023-08-21T13:49:15.550Z,7.80
2023-08-21T13:51:42.275Z,7.28
2023-08-21T13:54:09.031Z,6.45
2023-08-21T13:56:35.947Z,6.90
2023-08-21T13:59:03.385Z,6.90
2023-08-21T14:01:30.152Z,6.78
2023-08-21T14:03:57.068Z,6.88
2023-08-21T14:06:23.984Z,7.35
2023-08-21T14:08:50.859Z,7.93
2023-08-21T14:11:17.676Z,8.38
2023-08-21T14:13:44.428Z,6.85
2023-08-21T14:16:11.225Z,6.50
2023-08-21T14:18:38.066Z,7.70
2023-08-21T14:21:04.899Z,9.93
2023-08-21T14:23:34.275Z,9.18
2023-08-21T14:26:02.514Z,7.55
2023-08-21T14:28:29.301Z,7.05
2023-08-21T14:30:56.130Z,6.82
2023-08-21T14:33:23.049Z,9.10
2023-08-21T14:35:50.058Z,6.90
2023-08-21T14:38:17.143Z,6.75
2023-08-21T14:40:43.942Z,6.97
2023-08-21T14:43:10.693Z,6.50
2023-08-21T14:45:37.429Z,6.70
2023-08-21T14:48:04.491Z,6.38
2023-08-21T14:50:31.374Z,7.15
2023-08-21T14:52:58.099Z,8.88
2023-08-21T14:55:24.875Z,7.18
2023-08-21T14:57:51.662Z,7.55
2023-08-21T15:00:18.628Z,6.72
2023-08-21T15:02:45.389Z,6.47
2023-08-21T15:05:12.986Z,6.45
2023-08-21T15:07:40.091Z,7.22
2023-08-21T15:10:07.368Z,6.07
2023-08-21T15:12:34.265Z,6.43
2023-08-21T15:15:01.077Z,6.60
2023-08-21T15:17:30.913Z,6.78
2023-08-21T15:19:57.768Z,7.00
2023-08-21T15:22:24.493Z,8.52
2023-08-21T15:24:51.241Z,8.85
2023-08-21T15:27:18.473Z,8.85
2023-08-21T15:29:45.275Z,6.53
2023-08-21T15:32:12.096Z,8.90
2023-08-21T15:34:38.880Z,9.40
2023-08-21T15:37:05.665Z,6.70
2023-08-21T15:39:32.618Z,7.45
2023-08-21T15:41:59.398Z,8.23
2023-08-21T15:44:26.152Z,6.68
2023-08-21T15:47:05.736Z,7.10
2023-08-21T15:49:39.526Z,6.45
2023-08-21T15:52:06.312Z,7.75
2023-08-21T15:54:33.676Z,6.20
2023-08-21T15:57:01.645Z,8.85
2023-08-21T15:59:28.372Z,8.02
2023-08-21T16:01:55.199Z,6.85
2023-08-21T16:04:22.479Z,6.90
2023-08-21T16:06:50.201Z,6.47
2023-08-21T16:09:19.860Z,6.57
2023-08-21T16:11:46.957Z,8.85
2023-08-21T16:14:14.303Z,8.38
2023-08-21T16:16:44.199Z,6.50
2023-08-21T16:19:11.674Z,6.43
2023-08-21T16:21:38.508Z,6.20
2023-08-21T16:24:05.602Z,6.78
2023-08-21T16:26:32.992Z,6.43
2023-08-21T16:28:59.783Z,6.65
2023-08-21T16:31:26.854Z,6.53
2023-08-21T16:33:53.757Z,7.05
2023-08-21T16:36:20.564Z,7.30
2023-08-21T16:38:47.938Z,6.05
2023-08-21T16:41:14.812Z,8.93
2023-08-21T16:43:41.662Z,8.00
2023-08-21T16:46:08.982Z,7.00
2023-08-21T16:48:35.810Z,5.90
2023-08-21T16:51:02.511Z,8.27
2023-08-21T16:53:29.284Z,6.65
2023-08-21T16:55:56.148Z,8.07
2023-08-21T16:58:22.881Z,9.05
2023-08-21T17:00:49.822Z,6.75
2023-08-21T17:03:16.660Z,6.75
2023-08-21T17:05:43.476Z,6.15
2023-08-21T17:08:10.908Z,6.10
2023-08-21T17:10:40.120Z,6.40
2023-08-21T17:13:07.250Z,6.50
2023-08-21T17:15:33.997Z,6.72
2023-08-21T17:18:02.519Z,6.03
2023-08-21T17:20:29.293Z,6.82
2023-08-21T17:22:56.478Z,6.70
2023-08-21T17:25:23.797Z,6.28
2023-08-21T17:27:50.829Z,6.07
2023-08-21T17:30:17.695Z,6.68
2023-08-21T17:32:44.731Z,6.43
2023-08-21T17:35:12.504Z,7.10
2023-08-21T17:37:39.422Z,7.07
2023-08-21T17:40:08.246Z,6.95
2023-08-21T17:42:35.096Z,8.77
2023-08-21T17:45:01.815Z,7.18
2023-08-21T17:47:28.588Z,7.75
2023-08-21T17:49:55.358Z,6.45
2023-08-21T17:52:22.135Z,6.45
2023-08-21T17:54:48.963Z,7.00
2023-08-21T17:57:15.912Z,6.60
2023-08-21T17:59:42.935Z,6.55
2023-08-21T18:02:11.418Z,6.90
2023-08-21T18:04:42.609Z,6.90
2023-08-21T18:07:09.421Z,7.70
2023-08-21T18:09:37.684Z,6.80
2023-08-21T18:12:04.816Z,7.35
2023-08-21T18:14:31.688Z,6.38
2023-08-21T18:17:04.786Z,6.55
2023-08-21T18:19:45.477Z,6.93
2023-08-21T18:22:13.678Z,6.78
2023-08-21T18:24:40.436Z,6.57
2023-08-21T18:27:07.205Z,7.15
2023-08-21T18:29:38.304Z,7.05
2023-08-21T18:32:05.320Z,7.22
2023-08-21T18:34:32.145Z,6.47
2023-08-21T18:37:00.501Z,7.50
2023-08-21T18:39:27.321Z,6.35
2023-08-21T18:41:54.015Z,8.02
2023-08-21T18:44:20.763Z,6.47
2023-08-21T18:46:47.646Z,6.45
2023-08-21T18:49:14.402Z,7.70
2023-08-21T18:51:41.112Z,6.18
2023-08-21T18:54:07.856Z,6.72
2023-08-21T18:56:35.117Z,6.75
2023-08-21T18:59:02.750Z,6.72
2023-08-21T19:01:29.689Z,7.30
2023-08-21T19:03:57.792Z,6.68
2023-08-21T19:06:24.607Z,8.02
2023-08-21T19:08:51.631Z,7.10
2023-08-21T19:11:18.334Z,8.77
2023-08-21T19:13:45.083Z,8.18
2023-08-21T19:16:11.936Z,6.95
2023-08-21T19:18:38.985Z,8.07
2023-08-21T19:21:05.856Z,7.60
2023-08-21T19:23:32.588Z,6.90
2023-08-21T19:25:59.371Z,6.78
2023-08-21T19:28:26.148Z,7.43
2023-08-21T19:30:53.013Z,7.75
2023-08-21T19:33:21.657Z,7.95
2023-08-21T19:35:51.985Z,7.65
2023-08-21T19:38:20.477Z,7.25
2023-08-21T19:40:48.976Z,10.93
2023-08-21T19:43:15.809Z,7.47
2023-08-21T19:45:43.381Z,6.82
2023-08-21T19:48:10.228Z,7.93
2023-08-21T19:50:36.972Z,7.28
2023-08-21T19:53:04.100Z,8.10
2023-08-21T19:55:30.852Z,11.57
2023-08-21T19:57:57.680Z,8.15
2023-08-21T20:00:24.471Z,8.18
2023-08-21T20:02:51.493Z,8.00
2023-08-21T20:05:18.321Z,8.60
2023-08-21T20:07:45.185Z,8.35
2023-08-21T20:10:11.935Z,7.60
2023-08-21T20:12:38.826Z,9.75
2023-08-21T20:15:06.372Z,8.27
2023-08-21T20:17:33.992Z,9.80
2023-08-21T20:20:00.782Z,8.00
2023-08-21T20:22:27.578Z,8.33
2023-08-21T20:24:54.493Z,7.93
2023-08-21T20:27:21.247Z,8.17
2023-08-21T20:29:47.989Z,7.60
2023-08-21T20:32:16.038Z,8.07
2023-08-21T20:34:43.806Z,8.13
2023-08-21T20:37:10.868Z,9.27
2023-08-21T20:39:37.602Z,7.63
2023-08-21T20:42:05.097Z,7.60
2023-08-21T20:44:32.531Z,8.17
2023-08-21T20:46:59.438Z,10.07
2023-08-21T20:49:26.229Z,8.83
2023-08-21T20:51:52.977Z,9.47
2023-08-21T20:54:19.810Z,9.45
2023-08-21T20:56:46.567Z,7.70
2023-08-21T20:59:13.352Z,7.77
2023-08-21T21:01:40.106Z,11.20
2023-08-21T21:04:06.956Z,8.70
2023-08-21T21:06:33.835Z,8.50
2023-08-21T21:09:00.866Z,8.37
2023-08-21T21:11:27.567Z,9.93
2023-08-21T21:13:54.364Z,9.17
2023-08-21T21:16:21.191Z,8.77
2023-08-21T21:18:48.031Z,9.70
2023-08-21T21:21:14.778Z,9.07
2023-08-21T21:23:41.510Z,9.20
2023-08-21T21:26:08.341Z,8.17
2023-08-21T21:28:35.176Z,9.20
2023-08-21T21:31:02.242Z,11.27
2023-08-21T21:33:29.145Z,8.73
2023-08-21T21:35:59.449Z,9.27
2023-08-21T21:38:27.881Z,9.10
2023-08-21T21:40:57.684Z,8.90
2023-08-21T21:43:25.281Z,9.60
2023-08-21T21:45:57.092Z,9.60
2023-08-21T21:48:24.155Z,8.90
2023-08-21T21:50:51.206Z,9.70
2023-08-21T21:53:19.088Z,10.10
2023-08-21T21:55:45.804Z,8.57
2023-08-21T21:58:12.533Z,10.23
2023-08-21T22:00:39.274Z,8.90
2023-08-21T22:03:06.234Z,8.50
2023-08-21T22:05:33.154Z,9.23
2023-08-21T22:08:00.502Z,9.03
2023-08-21T22:10:27.287Z,11.27
2023-08-21T22:12:55.478Z,9.37
2023-08-21T22:15:22.308Z,9.87
2023-08-21T22:17:49.100Z,8.37
2023-08-21T22:20:15.874Z,9.00
2023-08-21T22:22:42.775Z,8.30
2023-08-21T22:25:09.558Z,9.07
2023-08-21T22:27:36.469Z,8.37
2023-08-21T22:30:04.083Z,8.20
2023-08-21T22:32:30.882Z,9.73
2023-08-21T22:34:57.710Z,9.00
2023-08-21T22:37:24.480Z,8.77
2023-08-21T22:39:51.252Z,9.37
2023-08-21T22:42:18.152Z,8.40
2023-08-21T22:44:45.037Z,9.37
2023-08-21T22:47:13.030Z,9.07
2023-08-21T22:49:40.456Z,9.20
2023-08-21T22:52:07.844Z,10.37
2023-08-21T22:54:34.841Z,9.10
2023-08-21T22:57:01.776Z,9.03
2023-08-21T22:59:29.305Z,9.40
2023-08-21T23:01:56.063Z,9.23
2023-08-21T23:04:22.914Z,8.77
2023-08-21T23:06:49.620Z,9.23
2023-08-21T23:09:16.548Z,8.37
2023-08-21T23:11:43.309Z,8.87
2023-08-21T23:14:10.112Z,8.40
2023-08-21T23:16:36.921Z,9.73
2023-08-21T23:19:04.104Z,8.90
2023-08-21T23:21:31.067Z,8.17
2023-08-21T23:23:57.805Z,9.23
2023-08-21T23:26:24.583Z,11.50
2023-08-21T23:28:51.349Z,9.10
2023-08-21T23:31:18.379Z,8.20
2023-08-21T23:33:45.203Z,9.27
2023-08-21T23:36:11.986Z,8.90
2023-08-21T23:38:39.087Z,8.47
2023-08-21T23:41:06.030Z,9.77
2023-08-21T23:43:32.730Z,38.37
2023-08-21T23:45:59.509Z,13.77
2023-08-21T23:48:26.302Z,10.17
2023-08-21T23:50:53.107Z,11.23
2023-08-21T23:53:19.876Z,9.57
2023-08-21T23:55:46.604Z,9.10
2023-08-21T23:58:13.353Z,9.90
